Time;durP1;ratioP1;P1;durP2;ratioP2;P2;SDS_P1;SDS_P2;PMS_P1;PMS_P2;Temp;Humidity;BMP_temperature;BMP_pressure;BME280_temperature;BME280_humidity;BME280_pressure;Samples;Min_cycle;Max_cycle;Signal;HPM_P1;HPM_P2
2022/05/18 00:00:19;;;;;;;;;;;;;;;15.05;100.00;99235.59;5052594;28;865;-56
2022/05/18 00:02:45;;;;;;;;;;;;;;;15.13;100.00;99231.38;5052720;28;787;-55
2022/05/18 00:05:12;;;;;;;;;;;;;;;15.22;100.00;99227.91;5052445;28;885;-56
2022/05/18 00:07:39;;;;;;;;;;;;;;;15.28;100.00;99228.91;5052373;28;1878;-55
2022/05/18 00:10:06;;;;;;;;;;;;;;;15.29;100.00;99231.22;5052328;28;830;-55
2022/05/18 00:12:33;;;;;;;;;;;;;;;15.26;100.00;99223.78;5052335;28;870;-55
2022/05/18 00:14:59;;;;;;;;;;;;;;;15.22;100.00;99222.34;5052131;28;933;-56
2022/05/18 00:17:26;;;;;;;;;;;;;;;15.18;100.00;99222.44;5052270;28;885;-56
2022/05/18 00:19:52;;;;;;;;;;;;;;;15.20;100.00;99228.34;5052174;28;875;-56
2022/05/18 00:22:19;;;;;;;;;;;;;;;15.23;100.00;99235.03;5052224;28;818;-55
2022/05/18 00:24:46;;;;;;;;;;;;;;;15.23;100.00;99246.94;5052194;28;846;-54
2022/05/18 00:27:13;;;;;;;;;;;;;;;15.17;100.00;99257.09;5034073;28;1881;-53
2022/05/18 00:29:40;;;;;;;;;;;;;;;15.07;100.00;99255.44;5051480;28;1311;-52
2022/05/18 00:32:07;;;;;;;;;;;;;;;15.04;100.00;99268.22;5051969;28;843;-54
2022/05/18 00:34:34;;;;;;;;;;;;;;;15.10;100.00;99235.81;5051954;28;866;-54
2022/05/18 00:37:01;;;;;;;;;;;;;;;15.15;100.00;99244.81;5051890;28;794;-55
2022/05/18 00:39:27;;;;;;;;;;;;;;;15.13;100.00;99250.06;5051949;28;807;-55
2022/05/18 00:41:55;;;;;;;;;;;;;;;15.01;100.00;99252.41;5051787;28;923;-54
2022/05/18 00:44:22;;;;;;;;;;;;;;;14.91;100.00;99253.53;5051762;28;851;-53
2022/05/18 00:46:48;;;;;;;;;;;;;;;14.84;100.00;99259.31;5051703;28;1914;-54
2022/05/18 00:49:16;;;;;;;;;;;;;;;14.80;100.00;99256.63;5051709;28;839;-55
2022/05/18 00:51:44;;;;;;;;;;;;;;;14.87;100.00;99258.41;5051596;28;926;-54
2022/05/18 00:54:17;;;;;;;;;;;;;;;14.98;100.00;99260.88;5051626;28;846;-54
2022/05/18 00:56:50;;;;;;;;;;;;;;;15.08;100.00;99276.44;5051571;28;830;-54
2022/05/18 00:59:20;;;;;;;;;;;;;;;15.19;100.00;99260.22;5051927;28;807;-54
2022/05/18 01:01:48;;;;;;;;;;;;;;;15.41;100.00;99276.22;5051613;28;841;-54
2022/05/18 01:04:15;;;;;;;;;;;;;;;16.08;90.27;99261.19;5033606;28;894;-55
2022/05/18 01:06:51;;;;;;;;;;;;;;;17.34;79.20;99259.97;5051509;28;1894;-56
2022/05/18 01:09:20;;;;;;;;;;;;;;;18.21;73.10;99224.28;5051348;28;855;-55
2022/05/18 01:11:47;;;;;;;;;;;;;;;18.50;71.89;99251.75;5051686;28;874;-56
2022/05/18 01:14:17;;;;;;;;;;;;;;;18.51;70.71;99230.13;5051337;28;866;-54
2022/05/18 01:28:57;;;;;;;;;;;;;;;18.53;69.26;99222.81;5050487;28;1165;-59
2022/05/18 01:31:42;;;;;;;;;;;;;;;18.37;69.35;99214.81;5051318;28;794;-58
2022/05/18 01:34:10;;;;;;;;;;;;;;;18.22;70.49;99216.69;5043028;28;953;-59
2022/05/18 01:36:37;;;;;;;;;;;;;;;18.12;70.87;99218.72;5051141;28;861;-59
2022/05/18 01:39:06;;;;;;;;;;;;;;;18.10;70.30;99216.38;5051229;28;897;-58
2022/05/18 01:41:37;;;;;;;;;;;;;;;18.10;70.40;99218.41;5052748;28;877;-59
2022/05/18 01:44:04;;;;;;;;;;;;;;;18.07;70.13;99214.53;5055905;28;834;-60
2022/05/18 01:46:31;;;;;;;;;;;;;;;18.05;70.60;99219.03;5055679;28;1914;-60
2022/05/18 01:48:58;;;;;;;;;;;;;;;18.00;70.74;99198.06;5055663;28;842;-59
2022/05/18 01:51:31;;;;;;;;;;;;;;;18.01;70.43;99204.44;5055446;28;846;-61
2022/05/18 01:53:57;;;;;;;;;;;;;;;18.05;70.00;99202.25;5055010;28;806;-59
2022/05/18 01:56:25;;;;;;;;;;;;;;;18.01;70.01;99219.22;5054960;28;889;-60
2022/05/18 01:58:52;;;;;;;;;;;;;;;18.05;69.71;99217.03;5054735;28;879;-58
2022/05/18 02:01:20;;;;;;;;;;;;;;;18.10;69.86;99201.63;5054964;28;898;-59
2022/05/18 02:03:47;;;;;;;;;;;;;;;18.05;69.89;99188.28;5054657;28;909;-59
2022/05/18 02:06:13;;;;;;;;;;;;;;;18.02;70.43;99206.78;5054872;28;1944;-59
2022/05/18 02:20:53;;;;;;;;;;;;;;;17.74;73.21;99226.31;5054874;28;609;-59
2022/05/18 02:23:21;;;;;;;;;;;;;;;17.74;73.71;99271.03;5054713;28;866;-59
2022/05/18 02:25:49;;;;;;;;;;;;;;;17.68;74.25;99300.84;5054579;28;917;-59
2022/05/18 02:28:14;;;;;;;;;;;;;;;17.61;74.42;99267.63;5054291;28;1198;-60
2022/05/18 02:30:41;;;;;;;;;;;;;;;17.39;76.16;99259.38;5054196;28;838;-61
2022/05/18 02:36:11;;;;;;;;;;;;;;;16.37;83.91;99201.59;5054250;28;696;-62
2022/05/18 02:38:40;;;;;;;;;;;;;;;15.76;89.32;99192.69;5054124;28;879;-58
2022/05/18 02:41:07;;;;;;;;;;;;;;;15.54;91.93;99187.84;5053998;28;893;-61
2022/05/18 02:46:36;;;;;;;;;;;;;;;15.20;97.58;99158.00;5054017;28;1997;-60
2022/05/18 02:49:03;;;;;;;;;;;;;;;14.93;100.00;99102.84;5054040;28;848;-60
2022/05/18 02:51:30;;;;;;;;;;;;;;;14.86;100.00;99117.78;5053933;28;831;-65
2022/05/18 02:57:00;;;;;;;;;;;;;;;14.94;100.00;99121.09;5053846;28;609;-60
2022/05/18 02:59:27;;;;;;;;;;;;;;;14.97;100.00;99123.75;5053736;28;882;-60
2022/05/18 03:01:53;;;;;;;;;;;;;;;15.01;100.00;99131.97;5053716;28;901;-61
2022/05/18 03:04:20;;;;;;;;;;;;;;;15.03;100.00;99140.66;5053810;28;815;-68
2022/05/18 03:06:47;;;;;;;;;;;;;;;14.87;100.00;99136.00;5053491;28;1898;-63
2022/05/18 03:09:14;;;;;;;;;;;;;;;14.77;100.00;99131.59;5053513;28;842;-68
2022/05/18 03:11:41;;;;;;;;;;;;;;;14.68;100.00;99094.09;5053400;28;819;-67
2022/05/18 03:14:08;;;;;;;;;;;;;;;14.63;100.00;99085.53;5053712;28;854;-64
2022/05/18 03:16:35;;;;;;;;;;;;;;;14.59;100.00;99090.44;5053500;28;877;-67
2022/05/18 03:19:00;;;;;;;;;;;;;;;14.62;100.00;99097.91;5053355;28;858;-65
2022/05/18 03:24:15;;;;;;;;;;;;;;;14.79;100.00;99099.31;5053343;28;648;-69
2022/05/18 03:26:44;;;;;;;;;;;;;;;14.93;100.00;99092.47;5053181;28;1886;-65
2022/05/18 03:29:11;;;;;;;;;;;;;;;15.11;100.00;99122.50;5052924;28;1412;-68
2022/05/18 03:31:39;;;;;;;;;;;;;;;15.29;100.00;99139.34;5053116;28;969;-73
2022/05/18 03:43:15;;;;;;;;;;;;;;;15.35;100.00;99194.47;4914666;29;953;-73
2022/05/18 03:45:41;;;;;;;;;;;;;;;15.37;100.00;99206.72;4914910;29;792;-71
2022/05/18 03:48:11;;;;;;;;;;;;;;;15.47;100.00;99207.59;4914572;29;1923;-71
2022/05/18 03:50:39;;;;;;;;;;;;;;;15.61;100.00;99195.16;4914587;29;835;-69
2022/05/18 03:53:07;;;;;;;;;;;;;;;15.80;100.00;99193.31;4914529;29;837;-67
2022/05/18 03:55:34;;;;;;;;;;;;;;;15.96;100.00;99204.28;4914552;29;1054;-67
2022/05/18 03:58:02;;;;;;;;;;;;;;;16.08;100.00;99203.41;4914369;29;892;-67
2022/05/18 04:00:28;;;;;;;;;;;;;;;16.15;100.00;99216.31;4914317;29;1036;-66
2022/05/18 04:02:54;;;;;;;;;;;;;;;16.20;100.00;99231.69;4914646;29;874;-64
2022/05/18 04:05:21;;;;;;;;;;;;;;;16.22;100.00;99241.16;4913835;29;824;-65
2022/05/18 04:07:48;;;;;;;;;;;;;;;16.22;100.00;99245.97;4914166;29;1961;-65
2022/05/18 04:10:15;;;;;;;;;;;;;;;16.24;100.00;99254.66;4914142;29;1061;-65
2022/05/18 04:12:43;;;;;;;;;;;;;;;16.27;100.00;99270.47;4914446;29;859;-65
2022/05/18 04:15:10;;;;;;;;;;;;;;;16.24;100.00;99283.31;4982603;28;1100;-64
2022/05/18 04:17:37;;;;;;;;;;;;;;;16.20;100.00;99304.19;4990978;28;878;-65
2022/05/18 04:20:05;;;;;;;;;;;;;;;16.18;100.00;99313.00;4990885;28;941;-64
2022/05/18 04:22:32;;;;;;;;;;;;;;;16.11;100.00;99314.03;4990819;28;901;-64
2022/05/18 04:25:01;;;;;;;;;;;;;;;16.07;100.00;99307.81;4990957;28;815;-65
2022/05/18 04:27:28;;;;;;;;;;;;;;;16.17;100.00;99302.28;4990491;28;1967;-64
2022/05/18 04:29:55;;;;;;;;;;;;;;;16.40;100.00;99312.22;4976450;28;1463;-64
2022/05/18 04:32:23;;;;;;;;;;;;;;;16.69;100.00;99318.31;4971255;28;982;-65
2022/05/18 04:34:50;;;;;;;;;;;;;;;17.01;100.00;99309.97;4971216;28;911;-64
2022/05/18 04:37:17;;;;;;;;;;;;;;;17.22;98.74;99309.13;4971120;28;862;-64
2022/05/18 04:39:44;;;;;;;;;;;;;;;17.38;97.47;99319.25;4971092;28;800;-63
2022/05/18 04:42:10;;;;;;;;;;;;;;;17.53;96.50;99319.44;5017004;28;1119;-63
2022/05/18 04:44:38;;;;;;;;;;;;;;;17.65;95.44;99318.53;5031867;28;819;-64
2022/05/18 04:47:05;;;;;;;;;;;;;;;17.83;95.47;99312.22;5014051;28;1910;-63
2022/05/18 04:49:32;;;;;;;;;;;;;;;18.06;95.20;99319.25;5031852;28;862;-64
2022/05/18 04:51:59;;;;;;;;;;;;;;;18.28;94.72;99318.28;5031868;28;799;-64
2022/05/18 04:54:26;;;;;;;;;;;;;;;18.44;94.38;99320.78;5031972;28;855;-67
2022/05/18 04:56:52;;;;;;;;;;;;;;;18.53;91.18;99320.75;5031668;28;819;-64
2022/05/18 04:59:19;;;;;;;;;;;;;;;18.64;89.95;99333.50;5031620;28;870;-64
2022/05/18 05:01:46;;;;;;;;;;;;;;;18.88;91.63;99323.22;5031674;28;925;-63
2022/05/18 05:04:14;;;;;;;;;;;;;;;19.11;91.36;99329.34;5031579;28;808;-64
2022/05/18 05:06:41;;;;;;;;;;;;;;;19.18;88.37;99332.59;5031505;28;1890;-63
2022/05/18 05:09:07;;;;;;;;;;;;;;;19.09;87.70;99331.84;5031486;28;838;-61
2022/05/18 05:11:34;;;;;;;;;;;;;;;19.27;86.56;99336.59;5031632;28;873;-62
2022/05/18 05:14:00;;;;;;;;;;;;;;;19.56;84.74;99338.78;5031520;28;917;-63
2022/05/18 05:16:28;;;;;;;;;;;;;;;20.08;85.97;99335.81;5030570;28;850;-63
2022/05/18 05:18:55;;;;;;;;;;;;;;;20.72;80.93;99345.75;5031427;28;827;-63
2022/05/18 05:21:22;;;;;;;;;;;;;;;21.02;78.74;99340.88;5031406;28;846;-63
2022/05/18 05:23:48;;;;;;;;;;;;;;;21.32;79.63;99340.84;5031432;28;802;-63
2022/05/18 05:26:15;;;;;;;;;;;;;;;21.50;77.85;99337.81;5031366;28;1953;-64
2022/05/18 05:28:42;;;;;;;;;;;;;;;21.53;75.75;99341.66;5035630;28;1264;-66
2022/05/18 05:31:10;;;;;;;;;;;;;;;21.27;73.90;99338.72;5051485;28;909;-65
2022/05/18 05:33:37;;;;;;;;;;;;;;;21.36;76.62;99349.84;5051228;28;885;-64
2022/05/18 05:36:05;;;;;;;;;;;;;;;21.54;73.95;99346.03;5051181;28;822;-64
2022/05/18 05:38:32;;;;;;;;;;;;;;;21.82;72.78;99338.75;5051065;28;859;-62
2022/05/18 05:41:02;;;;;;;;;;;;;;;22.06;68.26;99353.88;5051145;28;870;-63
2022/05/18 05:43:31;;;;;;;;;;;;;;;21.03;71.00;99361.31;5051376;28;822;-64
2022/05/18 05:45:59;;;;;;;;;;;;;;;20.44;72.58;99360.00;5051250;28;834;-65
2022/05/18 05:48:26;;;;;;;;;;;;;;;20.07;73.74;99356.72;5051057;28;834;-64
2022/05/18 05:50:53;;;;;;;;;;;;;;;19.89;74.94;99366.81;5051396;28;830;-64
2022/05/18 05:53:20;;;;;;;;;;;;;;;19.80;74.61;99372.50;5051070;28;791;-62
2022/05/18 05:55:47;;;;;;;;;;;;;;;19.91;76.94;99383.16;5051022;28;834;-62
2022/05/18 05:58:17;;;;;;;;;;;;;;;20.05;78.41;99381.66;5051082;28;858;-61
2022/05/18 06:00:45;;;;;;;;;;;;;;;20.31;78.72;99385.53;5050853;28;879;-61
2022/05/18 06:03:13;;;;;;;;;;;;;;;20.44;75.55;99395.69;5050935;28;885;-62
2022/05/18 06:05:38;;;;;;;;;;;;;;;20.51;75.34;99393.31;5050900;28;816;-61
2022/05/18 06:08:05;;;;;;;;;;;;;;;20.68;78.51;99392.91;5050754;28;1885;-61
2022/05/18 06:10:34;;;;;;;;;;;;;;;20.86;77.62;99392.69;5050898;28;810;-61
2022/05/18 06:13:04;;;;;;;;;;;;;;;20.69;74.83;99402.84;5051035;28;815;-61
2022/05/18 06:15:31;;;;;;;;;;;;;;;20.47;77.09;99408.78;5050838;28;811;-62
2022/05/18 06:17:57;;;;;;;;;;;;;;;20.30;77.64;99412.03;5050865;28;909;-61
2022/05/18 06:20:24;;;;;;;;;;;;;;;20.10;79.40;99412.66;5050798;28;893;-61
2022/05/18 06:22:50;;;;;;;;;;;;;;;19.55;82.06;99410.88;5050763;28;846;-62
2022/05/18 06:25:18;;;;;;;;;;;;;;;19.13;84.82;99422.84;5050741;28;845;-61
2022/05/18 06:27:45;;;;;;;;;;;;;;;18.93;87.96;99420.56;5052311;28;1886;-61
2022/05/18 06:30:13;;;;;;;;;;;;;;;18.86;89.49;99412.50;5037670;28;1267;-61
2022/05/18 06:32:40;;;;;;;;;;;;;;;18.60;88.07;99420.41;5016535;28;1161;-62
2022/05/18 06:35:08;;;;;;;;;;;;;;;18.23;86.90;99431.59;5034368;28;823;-61
2022/05/18 06:37:35;;;;;;;;;;;;;;;17.98;88.88;99434.66;5034105;28;811;-61
2022/05/18 06:40:06;;;;;;;;;;;;;;;17.73;90.10;99428.81;5034081;28;839;-61
2022/05/18 06:42:33;;;;;;;;;;;;;;;17.57;91.96;99431.84;5034105;28;823;-61
2022/05/18 06:45:00;;;;;;;;;;;;;;;17.41;92.74;99446.03;5034130;28;893;-61
2022/05/18 06:47:27;;;;;;;;;;;;;;;17.31;93.75;99437.63;5034007;28;1971;-60
2022/05/18 06:49:53;;;;;;;;;;;;;;;17.44;95.20;99439.56;5034056;28;874;-60
2022/05/18 06:52:20;;;;;;;;;;;;;;;17.65;96.32;99444.31;5034016;28;803;-61
2022/05/18 06:54:48;;;;;;;;;;;;;;;17.85;96.76;99441.13;5033954;28;814;-61
2022/05/18 06:57:14;;;;;;;;;;;;;;;17.86;96.85;99444.69;5033881;28;842;-61
2022/05/18 06:59:42;;;;;;;;;;;;;;;17.74;96.07;99452.72;5033893;28;806;-61
2022/05/18 07:02:08;;;;;;;;;;;;;;;17.63;94.46;99476.75;5033859;28;854;-63
2022/05/18 07:04:36;;;;;;;;;;;;;;;16.99;91.40;99485.53;5033712;28;858;-61
2022/05/18 07:19:14;;;;;;;;;;;;;;;14.20;98.94;99526.00;5033898;28;621;-63
2022/05/18 07:21:41;;;;;;;;;;;;;;;13.92;100.00;99531.03;5033448;28;878;-62
2022/05/18 07:24:08;;;;;;;;;;;;;;;13.66;100.00;99541.91;5033761;28;811;-62
2022/05/18 07:26:36;;;;;;;;;;;;;;;13.47;100.00;99546.28;5033299;28;1902;-66
2022/05/18 07:29:03;;;;;;;;;;;;;;;13.40;100.00;99527.00;5040145;28;1405;-65
2022/05/18 07:31:31;;;;;;;;;;;;;;;13.36;100.00;99536.63;5053203;28;846;-63
2022/05/18 07:46:09;;;;;;;;;;;;;;;13.11;100.00;99576.69;5053187;28;1965;-66
2022/05/18 07:48:37;;;;;;;;;;;;;;;13.02;100.00;99577.25;5052868;28;889;-67
2022/05/18 07:51:03;;;;;;;;;;;;;;;12.88;100.00;99572.75;5052771;28;862;-63
2022/05/18 07:53:30;;;;;;;;;;;;;;;12.70;100.00;99594.47;5052778;28;858;-61
2022/05/18 08:16:42;;;;;;;;;;;;;;;12.08;100.00;99632.63;5052594;28;628;-63
2022/05/18 08:19:12;;;;;;;;;;;;;;;12.06;100.00;99632.28;5034391;28;1393;-61
2022/05/18 08:21:39;;;;;;;;;;;;;;;12.04;100.00;99641.00;5052514;28;842;-61
2022/05/18 08:24:06;;;;;;;;;;;;;;;11.99;100.00;99657.28;5052105;28;846;-62
2022/05/18 08:26:33;;;;;;;;;;;;;;;11.92;100.00;99680.31;5052104;28;1947;-61
2022/05/18 08:29:01;;;;;;;;;;;;;;;11.89;100.00;99681.16;5033880;28;1355;-61
2022/05/18 08:31:28;;;;;;;;;;;;;;;11.93;100.00;99700.50;5052939;28;775;-62
2022/05/18 08:33:55;;;;;;;;;;;;;;;11.94;100.00;99694.53;5052909;28;818;-61
2022/05/18 08:36:25;;;;;;;;;;;;;;;11.96;100.00;99691.34;5052297;28;898;-60
2022/05/18 08:38:52;;;;;;;;;;;;;;;11.94;100.00;99699.28;5051886;28;874;-60
2022/05/18 08:41:23;;;;;;;;;;;;;;;11.94;99.96;99688.22;5051934;28;857;-64
2022/05/18 08:43:52;;;;;;;;;;;;;;;11.95;97.97;99704.44;5051644;28;1879;-62
2022/05/18 08:46:19;;;;;;;;;;;;;;;11.93;96.98;99694.97;5051957;28;1913;-61
2022/05/18 08:48:56;;;;;;;;;;;;;;;11.84;96.27;99689.88;5052056;28;811;-60
2022/05/18 08:51:33;;;;;;;;;;;;;;;11.79;97.42;99715.25;5051567;28;817;-61
2022/05/18 08:54:18;;;;;;;;;;;;;;;11.74;98.24;99704.66;5051687;28;909;-63
2022/05/18 08:56:45;;;;;;;;;;;;;;;11.71;98.65;99711.78;5051683;28;837;-64
2022/05/18 08:59:31;;;;;;;;;;;;;;;11.70;98.96;99715.75;5033788;28;2148;-62
2022/05/18 09:01:59;;;;;;;;;;;;;;;11.57;99.63;99718.25;5051489;28;874;-60
2022/05/18 09:04:31;;;;;;;;;;;;;;;11.35;99.04;99708.59;5051455;28;826;-64
2022/05/18 09:07:07;;;;;;;;;;;;;;;11.16;99.88;99738.41;5051980;28;1886;-61
2022/05/18 09:12:27;;;;;;;;;;;;;;;10.88;100.00;99741.38;5051612;28;684;-64
2022/05/18 09:14:55;;;;;;;;;;;;;;;10.72;100.00;99728.06;5051442;28;888;-66
2022/05/18 09:17:40;;;;;;;;;;;;;;;10.67;100.00;99745.88;5051421;28;881;-73
2022/05/18 09:20:26;;;;;;;;;;;;;;;10.60;100.00;99732.91;5051495;28;827;-69
2022/05/18 09:23:02;;;;;;;;;;;;;;;10.52;100.00;99750.69;5051231;28;902;-65
2022/05/18 09:25:32;;;;;;;;;;;;;;;10.49;100.00;99751.50;5051354;28;905;-60
2022/05/18 09:28:18;;;;;;;;;;;;;;;10.36;100.00;99764.97;5051453;28;1910;-61
2022/05/18 09:31:02;;;;;;;;;;;;;;;10.28;100.00;99765.38;5051235;28;818;-61
2022/05/18 09:33:45;;;;;;;;;;;;;;;10.29;100.00;99770.53;5051475;28;846;-62
2022/05/18 09:36:26;;;;;;;;;;;;;;;10.38;100.00;99732.22;5051244;28;862;-60
2022/05/18 09:38:52;;;;;;;;;;;;;;;10.36;100.00;99759.44;5051231;28;827;-58
2022/05/18 09:41:22;;;;;;;;;;;;;;;10.05;100.00;99743.78;5051191;28;846;-60
2022/05/18 09:43:49;;;;;;;;;;;;;;;9.81;100.00;99780.16;5051200;28;866;-60
2022/05/18 09:46:20;;;;;;;;;;;;;;;9.59;100.00;99778.59;5051267;28;1982;-60
2022/05/18 09:48:54;;;;;;;;;;;;;;;9.40;100.00;99786.09;5051150;28;807;-60
2022/05/18 09:51:22;;;;;;;;;;;;;;;9.21;100.00;99789.25;5051010;28;851;-62
2022/05/18 09:53:50;;;;;;;;;;;;;;;9.02;100.00;99808.94;5050964;28;898;-60
2022/05/18 09:56:19;;;;;;;;;;;;;;;8.82;100.00;99789.22;5050991;28;886;-61
2022/05/18 10:27:17;;;;;;;;;;;;;;;8.44;100.00;99882.38;5120570;23;1890;-60
2022/05/18 10:29:50;;;;;;;;;;;;;;;8.39;100.00;99886.25;5074709;28;822;-65
2022/05/18 10:32:23;;;;;;;;;;;;;;;8.43;100.00;99881.59;5074312;28;926;-62
2022/05/18 10:34:51;;;;;;;;;;;;;;;8.48;100.00;99886.72;5074329;28;849;-63
2022/05/18 10:37:28;;;;;;;;;;;;;;;8.47;100.00;99890.66;5074528;28;899;-63
2022/05/18 10:40:11;;;;;;;;;;;;;;;8.50;100.00;99908.38;5074549;28;810;-61
2022/05/18 10:42:52;;;;;;;;;;;;;;;8.46;100.00;99915.81;5056173;28;882;-60
2022/05/18 10:45:32;;;;;;;;;;;;;;;8.44;100.00;99934.69;5074177;28;869;-60
2022/05/18 10:48:13;;;;;;;;;;;;;;;8.42;100.00;99937.81;5074072;28;1973;-63
2022/05/18 10:50:41;;;;;;;;;;;;;;;8.38;100.00;99940.56;5074023;28;834;-60
2022/05/18 10:53:13;;;;;;;;;;;;;;;8.33;100.00;99937.34;5074023;28;885;-61
2022/05/18 10:55:58;;;;;;;;;;;;;;;8.24;100.00;99945.97;5074011;28;793;-60
2022/05/18 10:58:26;;;;;;;;;;;;;;;7.99;100.00;99954.03;5073867;28;814;-63
2022/05/18 11:00:59;;;;;;;;;;;;;;;7.81;100.00;99953.88;5074575;28;770;-67
2022/05/18 11:03:44;;;;;;;;;;;;;;;7.70;100.00;99964.81;5073759;28;841;-63
2022/05/18 11:06:19;;;;;;;;;;;;;;;7.69;100.00;99982.47;5073729;28;1993;-61
2022/05/18 11:08:46;;;;;;;;;;;;;;;7.66;100.00;99974.97;5073663;28;885;-60
2022/05/18 11:11:28;;;;;;;;;;;;;;;7.65;100.00;100003.66;5073731;28;810;-61
2022/05/18 11:14:16;;;;;;;;;;;;;;;7.63;100.00;100005.19;5073358;28;993;-65
2022/05/18 11:16:48;;;;;;;;;;;;;;;7.69;100.00;99998.19;5073796;28;880;-70
2022/05/18 11:19:33;;;;;;;;;;;;;;;7.67;100.00;100004.06;5073550;28;821;-59
2022/05/18 11:22:10;;;;;;;;;;;;;;;7.63;100.00;100008.72;5073479;28;937;-61
2022/05/18 11:24:40;;;;;;;;;;;;;;;7.66;100.00;100010.75;5073592;28;841;-59
2022/05/18 11:27:08;;;;;;;;;;;;;;;7.68;100.00;100005.66;5072930;28;1909;-60
2022/05/18 11:29:54;;;;;;;;;;;;;;;7.66;100.00;99999.75;5073331;28;821;-63
2022/05/18 11:32:20;;;;;;;;;;;;;;;7.71;100.00;100006.84;5073275;28;810;-61
2022/05/18 11:35:07;;;;;;;;;;;;;;;7.63;100.00;100013.44;5073327;28;806;-63
2022/05/18 11:37:45;;;;;;;;;;;;;;;7.52;100.00;100018.84;5073143;28;1029;-61
2022/05/18 11:40:11;;;;;;;;;;;;;;;7.57;100.00;100018.50;5073407;28;810;-61
2022/05/18 11:45:50;;;;;;;;;;;;;;;7.63;100.00;100013.44;5073417;28;608;-62
2022/05/18 11:48:33;;;;;;;;;;;;;;;7.69;100.00;100025.69;5054892;28;1939;-62
2022/05/18 11:51:03;;;;;;;;;;;;;;;7.81;100.00;100024.63;5072884;28;837;-60
2022/05/18 11:53:38;;;;;;;;;;;;;;;7.85;100.00;100019.94;5072957;28;822;-63
2022/05/18 11:56:11;;;;;;;;;;;;;;;7.93;100.00;100021.59;5072745;28;845;-64
2022/05/18 11:59:09;;;;;;;;;;;;;;;7.95;100.00;100002.75;5073322;28;770;-64
2022/05/18 12:02:01;;;;;;;;;;;;;;;8.01;100.00;100020.50;5072624;28;913;-67
2022/05/18 12:04:46;;;;;;;;;;;;;;;8.21;100.00;100021.06;5072584;28;856;-70
2022/05/18 12:07:15;;;;;;;;;;;;;;;8.37;100.00;100016.06;5072514;28;1886;-62
2022/05/18 12:09:54;;;;;;;;;;;;;;;8.32;100.00;100026.66;5072773;28;790;-62
2022/05/18 12:12:36;;;;;;;;;;;;;;;8.29;100.00;100024.66;5072455;28;826;-63
2022/05/18 12:15:11;;;;;;;;;;;;;;;8.39;100.00;100027.50;5072342;28;864;-66
2022/05/18 12:17:45;;;;;;;;;;;;;;;8.53;100.00;100028.81;5072336;28;1001;-62
2022/05/18 12:20:16;;;;;;;;;;;;;;;8.67;100.00;100028.13;5072318;28;797;-61
2022/05/18 12:22:46;;;;;;;;;;;;;;;8.69;98.17;100047.81;5072270;28;896;-66
2022/05/18 12:25:15;;;;;;;;;;;;;;;8.79;97.99;100039.63;5071987;28;936;-66
2022/05/18 12:27:43;;;;;;;;;;;;;;;8.89;97.20;100053.84;5072076;28;1926;-64
2022/05/18 12:30:11;;;;;;;;;;;;;;;8.87;96.77;100058.94;5072321;28;905;-69
2022/05/18 12:32:38;;;;;;;;;;;;;;;8.87;96.84;100073.50;5072178;28;900;-66
2022/05/18 12:35:11;;;;;;;;;;;;;;;8.87;96.63;100073.50;5054042;28;1264;-72
2022/05/18 12:38:02;;;;;;;;;;;;;;;8.91;95.76;100076.28;5072064;28;849;-74
2022/05/18 12:40:48;;;;;;;;;;;;;;;8.95;95.43;100088.13;5071880;28;821;-72
2022/05/18 12:43:17;;;;;;;;;;;;;;;9.01;94.90;100105.13;5071934;28;889;-69
2022/05/18 12:45:46;;;;;;;;;;;;;;;9.06;95.30;100113.81;5053938;28;1451;-69
2022/05/18 12:48:18;;;;;;;;;;;;;;;9.09;95.11;100118.56;5071787;28;1884;-70
2022/05/18 12:50:53;;;;;;;;;;;;;;;9.12;94.95;100105.97;5071805;28;794;-70
2022/05/18 12:53:25;;;;;;;;;;;;;;;9.25;95.17;100118.25;5071947;28;790;-71
2022/05/18 12:55:50;;;;;;;;;;;;;;;9.41;95.64;100115.19;5053281;28;1216;-71
2022/05/18 12:58:17;;;;;;;;;;;;;;;9.53;95.54;100119.56;5071695;28;802;-69
2022/05/18 13:01:06;;;;;;;;;;;;;;;9.57;94.99;100118.41;5071709;28;826;-70
2022/05/18 13:03:43;;;;;;;;;;;;;;;9.54;94.64;100113.66;5071638;28;814;-73
2022/05/18 13:06:39;;;;;;;;;;;;;;;9.58;95.05;100131.03;5071563;28;798;-69
2022/05/18 13:09:24;;;;;;;;;;;;;;;9.71;95.69;100128.72;5054666;28;1304;-67
2022/05/18 13:11:57;;;;;;;;;;;;;;;9.82;95.73;100139.78;5071651;28;814;-66
2022/05/18 13:14:26;;;;;;;;;;;;;;;9.91;95.86;100139.44;5071522;28;865;-66
2022/05/18 13:16:52;;;;;;;;;;;;;;;10.02;95.95;100141.03;5071524;28;787;-64
2022/05/18 13:19:19;;;;;;;;;;;;;;;10.11;96.10;100150.91;5071485;28;890;-64
2022/05/18 13:21:54;;;;;;;;;;;;;;;10.18;96.18;100156.47;5071517;28;909;-63
2022/05/18 13:24:30;;;;;;;;;;;;;;;10.22;95.85;100157.28;5071264;28;866;-63
2022/05/18 13:27:01;;;;;;;;;;;;;;;10.23;95.34;100164.38;5071012;28;1902;-62
2022/05/18 13:29:29;;;;;;;;;;;;;;;10.25;95.41;100162.00;5071351;28;783;-62
2022/05/18 13:32:07;;;;;;;;;;;;;;;10.30;95.63;100161.63;5071603;28;822;-61
2022/05/18 13:34:49;;;;;;;;;;;;;;;10.18;95.17;100168.31;5071453;28;854;-68
2022/05/18 13:37:15;;;;;;;;;;;;;;;9.94;95.71;100152.44;5072286;28;857;-70
2022/05/18 13:39:44;;;;;;;;;;;;;;;9.75;96.31;100157.13;5075413;28;794;-66
2022/05/18 13:42:16;;;;;;;;;;;;;;;9.71;97.14;100158.28;5075329;28;865;-66
2022/05/18 13:44:45;;;;;;;;;;;;;;;9.78;97.45;100169.34;5075445;28;806;-68
2022/05/18 13:59:27;;;;;;;;;;;;;;;9.82;99.05;100170.94;5075647;28;619;-64
2022/05/18 14:01:56;;;;;;;;;;;;;;;9.98;99.88;100178.88;5074936;28;838;-65
2022/05/18 14:04:26;;;;;;;;;;;;;;;10.21;100.00;100189.63;5074990;28;876;-64
2022/05/18 14:06:54;;;;;;;;;;;;;;;10.44;100.00;100196.03;5074824;28;2019;-64
2022/05/18 14:09:21;;;;;;;;;;;;;;;10.60;99.95;100193.66;5074840;28;806;-64
2022/05/18 14:11:53;;;;;;;;;;;;;;;10.79;100.00;100192.50;5074724;28;889;-63
2022/05/18 14:14:21;;;;;;;;;;;;;;;11.03;99.99;100188.97;5074729;28;818;-63
2022/05/18 14:16:58;;;;;;;;;;;;;;;11.14;99.74;100194.47;5074670;28;901;-64
2022/05/18 14:19:30;;;;;;;;;;;;;;;11.23;99.97;100194.84;5074735;28;893;-62
2022/05/18 14:21:57;;;;;;;;;;;;;;;11.14;98.54;100200.00;5074519;28;802;-64
2022/05/18 14:24:27;;;;;;;;;;;;;;;10.93;98.99;100211.09;5074480;28;885;-63
2022/05/18 14:27:00;;;;;;;;;;;;;;;10.82;99.08;100209.09;5074330;28;1979;-63
2022/05/18 14:29:35;;;;;;;;;;;;;;;10.68;99.21;100206.31;5074477;28;849;-62
2022/05/18 14:32:07;;;;;;;;;;;;;;;10.67;99.42;100210.28;5074425;28;805;-61
2022/05/18 14:34:47;;;;;;;;;;;;;;;10.58;99.35;100207.09;5074449;28;881;-63
2022/05/18 14:37:21;;;;;;;;;;;;;;;10.51;99.89;100221.69;5074368;28;802;-63
2022/05/18 14:39:48;;;;;;;;;;;;;;;10.57;100.00;100225.66;5074242;28;1199;-61
2022/05/18 14:42:15;;;;;;;;;;;;;;;10.68;100.00;100225.66;5074183;28;841;-62
2022/05/18 14:44:45;;;;;;;;;;;;;;;10.94;99.91;100232.00;5074223;28;845;-61
2022/05/18 14:47:15;;;;;;;;;;;;;;;11.24;99.13;100220.53;5074143;28;1934;-61
2022/05/18 14:49:42;;;;;;;;;;;;;;;11.55;98.23;100226.44;5073901;28;881;-61
2022/05/18 14:52:10;;;;;;;;;;;;;;;11.92;97.71;100220.41;5073996;28;818;-62
2022/05/18 14:54:38;;;;;;;;;;;;;;;12.20;97.33;100224.25;5073906;28;871;-62
2022/05/18 14:57:18;;;;;;;;;;;;;;;12.50;96.23;100222.91;5073938;28;849;-62
2022/05/18 14:59:50;;;;;;;;;;;;;;;12.71;95.71;100222.75;5073961;28;829;-62
2022/05/18 15:02:17;;;;;;;;;;;;;;;12.95;95.18;100225.75;5073791;28;869;-62
2022/05/18 15:04:48;;;;;;;;;;;;;;;12.95;94.51;100214.66;5055914;28;885;-62
2022/05/18 15:07:19;;;;;;;;;;;;;;;13.05;94.35;100219.34;5073709;28;1945;-62
2022/05/18 15:09:54;;;;;;;;;;;;;;;13.19;93.48;100224.00;5073982;28;810;-61
2022/05/18 15:12:20;;;;;;;;;;;;;;;13.25;93.06;100228.69;5073648;28;838;-62
2022/05/18 15:14:57;;;;;;;;;;;;;;;13.52;93.17;100230.06;5055586;28;1251;-63
2022/05/18 15:17:27;;;;;;;;;;;;;;;13.91;91.76;100234.38;5073522;28;833;-63
2022/05/18 15:20:02;;;;;;;;;;;;;;;14.27;90.67;100229.16;5073959;28;835;-63
2022/05/18 15:22:33;;;;;;;;;;;;;;;14.45;90.18;100228.94;5073706;28;818;-62
2022/05/18 15:25:20;;;;;;;;;;;;;;;14.43;90.77;100220.22;5073324;28;980;-63
2022/05/18 15:27:47;;;;;;;;;;;;;;;14.44;90.33;100224.56;5042595;28;1911;-63
2022/05/18 15:30:15;;;;;;;;;;;;;;;14.34;90.05;100222.72;5053171;28;855;-63
2022/05/18 15:32:41;;;;;;;;;;;;;;;14.21;89.90;100217.75;5053197;28;886;-63